Argyle, Florida
Current Conditions -  °F | °C
As of 12:15 AM on Sunday 26 Oct 2014 (Local Time) from K54J Reporting Station
Clear Clear  
Wind Chill: 57°   Ceiling: Unl
Heat Index: 57°   Visibility: 10mi
Dew Point: 52°   Wind: 5mph
Humidity: 84%   Direction: 340°NNW
Pressure: 30.04"   Gusts: NA
Location:  30.72°N, 86.04°W
Report Text: K54J 260515Z AUTO 34004KT 10SM CLR 14/11 A3004 RMK AO2 T01390112
Loading
Personal Weather Stations






























Interactive Weather Map
Tropical Storm Tracking
New forecast layout! Learn more

10-Day Weather Forecast

Advertisements
Track Severe Weather on mobile